Time;durP1;ratioP1;P1;durP2;ratioP2;P2;SDS_P1;SDS_P2;PMS_P1;PMS_P2;Temp;Humidity;BMP_temperature;BMP_pressure;BME280_temperature;BME280_humidity;BME280_pressure;Samples;Min_cycle;Max_cycle;Signal;HPM_P1;HPM_P2
2022/04/17 00:00:50;;;;;;;10.75;8.60;;;;;;;;;;5096401;28;20560;-77
2022/04/17 00:03:17;;;;;;;12.05;9.18;;;;;;;;;;5096452;28;20282;-77
2022/04/17 00:05:44;;;;;;;12.25;9.00;;;;;;;;;;5096445;28;20194;-77
2022/04/17 00:08:13;;;;;;;11.93;8.48;;;;;;;;;;5095980;28;20199;-78
2022/04/17 00:10:40;;;;;;;13.18;8.50;;;;;;;;;;5096038;28;20227;-78
2022/04/17 00:13:07;;;;;;;10.70;8.15;;;;;;;;;;5096112;28;20200;-77
2022/04/17 00:15:35;;;;;;;9.07;7.47;;;;;;;;;;5095997;28;20199;-77
2022/04/17 00:18:02;;;;;;;11.63;7.82;;;;;;;;;;5096051;28;20195;-77
2022/04/17 00:20:29;;;;;;;9.60;7.68;;;;;;;;;;5095980;28;20714;-77
2022/04/17 00:22:56;;;;;;;10.95;7.25;;;;;;;;;;5095957;28;20196;-76
2022/04/17 00:25:25;;;;;;;8.63;6.85;;;;;;;;;;5094763;28;20196;-77
2022/04/17 00:27:52;;;;;;;9.20;6.95;;;;;;;;;;5095893;28;20303;-77
2022/04/17 00:30:19;;;;;;;11.77;8.07;;;;;;;;;;5095399;28;20219;-77
2022/04/17 00:32:47;;;;;;;10.27;7.45;;;;;;;;;;5095673;28;20196;-78
2022/04/17 00:35:14;;;;;;;8.98;6.95;;;;;;;;;;5095297;28;20645;-77
2022/04/17 00:37:41;;;;;;;12.90;7.55;;;;;;;;;;5095680;28;20191;-77
2022/04/17 00:40:08;;;;;;;8.05;6.22;;;;;;;;;;5095967;28;20202;-77
2022/04/17 00:42:40;;;;;;;8.45;7.07;;;;;;;;;;5095219;28;20670;-77
2022/04/17 00:45:08;;;;;;;8.50;7.50;;;;;;;;;;5095718;28;20191;-77
2022/04/17 00:47:36;;;;;;;8.57;7.68;;;;;;;;;;5095250;28;20223;-70
2022/04/17 00:50:04;;;;;;;7.55;6.60;;;;;;;;;;5095264;28;20261;-77
2022/04/17 00:52:31;;;;;;;11.05;7.63;;;;;;;;;;5095418;28;20202;-76
2022/04/17 00:54:59;;;;;;;7.60;6.90;;;;;;;;;;5095202;28;20212;-76
2022/04/17 00:57:26;;;;;;;8.18;7.38;;;;;;;;;;5094839;28;20204;-76
2022/04/17 00:59:55;;;;;;;7.80;7.00;;;;;;;;;;5095226;28;20206;-76
2022/04/17 01:02:22;;;;;;;9.73;7.00;;;;;;;;;;5094824;28;20205;-76
2022/04/17 01:04:49;;;;;;;9.15;7.35;;;;;;;;;;5094830;28;20260;-76
2022/04/17 01:07:17;;;;;;;7.93;6.90;;;;;;;;;;5095003;28;20195;-76
2022/04/17 01:09:45;;;;;;;11.10;7.55;;;;;;;;;;5095064;28;20304;-76
2022/04/17 01:12:13;;;;;;;8.35;7.03;;;;;;;;;;5094609;28;20657;-76
2022/04/17 01:14:40;;;;;;;9.77;8.70;;;;;;;;;;5094638;28;20192;-77
2022/04/17 01:17:09;;;;;;;9.48;8.43;;;;;;;;;;5094926;28;20199;-77
2022/04/17 01:19:37;;;;;;;9.95;8.10;;;;;;;;;;5094816;28;20209;-77
2022/04/17 01:22:07;;;;;;;11.95;8.45;;;;;;;;;;5094757;28;20194;-77
2022/04/17 01:27:20;;;;;;;10.95;9.00;;;;;;;;;;5094303;28;20197;-77
2022/04/17 01:29:48;;;;;;;10.27;7.63;;;;;;;;;;5095264;28;20216;-77
2022/04/17 01:32:15;;;;;;;8.43;7.38;;;;;;;;;;5094306;28;20202;-77
2022/04/17 01:34:43;;;;;;;11.43;8.55;;;;;;;;;;5094731;28;20195;-77
2022/04/17 01:37:12;;;;;;;13.73;9.20;;;;;;;;;;5094348;28;20194;-77
2022/04/17 01:39:39;;;;;;;10.82;8.30;;;;;;;;;;5094162;28;20209;-77
2022/04/17 01:42:06;;;;;;;9.90;8.65;;;;;;;;;;5094045;28;20195;-77
2022/04/17 01:44:34;;;;;;;12.77;9.25;;;;;;;;;;5094130;28;20197;-77
2022/04/17 01:47:02;;;;;;;15.68;10.05;;;;;;;;;;5094174;28;20232;-76
2022/04/17 01:49:30;;;;;;;14.90;9.85;;;;;;;;;;5094246;28;20226;-76
2022/04/17 01:51:57;;;;;;;16.65;9.95;;;;;;;;;;5094177;28;20201;-76
2022/04/17 01:54:27;;;;;;;11.48;9.70;;;;;;;;;;5094305;28;20197;-77
2022/04/17 01:56:55;;;;;;;14.18;10.05;;;;;;;;;;5093884;28;20233;-76
2022/04/17 01:59:23;;;;;;;12.80;9.60;;;;;;;;;;5094181;28;20203;-77
2022/04/17 02:01:51;;;;;;;13.38;9.95;;;;;;;;;;5094018;28;20328;-76
2022/04/17 02:04:18;;;;;;;11.70;9.15;;;;;;;;;;5093789;28;20291;-78
2022/04/17 02:06:46;;;;;;;12.05;9.40;;;;;;;;;;5093987;28;20200;-77
2022/04/17 02:09:15;;;;;;;13.90;9.40;;;;;;;;;;5094263;28;20282;-77
2022/04/17 02:11:45;;;;;;;12.57;9.45;;;;;;;;;;5093610;28;20652;-77
2022/04/17 02:14:12;;;;;;;12.15;9.38;;;;;;;;;;5094002;28;20202;-77
2022/04/17 02:16:40;;;;;;;10.95;9.77;;;;;;;;;;5093547;28;20198;-77
2022/04/17 02:19:07;;;;;;;10.73;9.10;;;;;;;;;;5093877;28;20232;-76
2022/04/17 02:21:35;;;;;;;11.27;9.73;;;;;;;;;;5094001;28;20556;-76
2022/04/17 02:24:02;;;;;;;13.77;9.82;;;;;;;;;;5093811;28;20203;-76
2022/04/17 02:26:30;;;;;;;12.68;9.90;;;;;;;;;;5093697;28;20245;-76
2022/04/17 02:28:59;;;;;;;13.30;9.80;;;;;;;;;;5094186;28;20220;-77
2022/04/17 02:31:26;;;;;;;12.02;9.20;;;;;;;;;;5093296;28;20691;-77
2022/04/17 02:33:54;;;;;;;13.25;10.05;;;;;;;;;;5093865;28;20198;-77
2022/04/17 02:36:21;;;;;;;10.30;9.30;;;;;;;;;;5093668;28;20217;-76
2022/04/17 02:38:48;;;;;;;12.93;9.77;;;;;;;;;;5093411;28;20290;-77
2022/04/17 02:41:15;;;;;;;9.75;8.70;;;;;;;;;;5093320;28;20195;-76
2022/04/17 02:43:43;;;;;;;14.20;10.13;;;;;;;;;;5093534;28;20196;-76
2022/04/17 02:46:11;;;;;;;11.45;9.20;;;;;;;;;;5093334;28;20718;-76
2022/04/17 02:48:38;;;;;;;12.02;9.38;;;;;;;;;;5093414;28;20194;-76
2022/04/17 02:51:06;;;;;;;11.60;10.30;;;;;;;;;;5098216;28;20308;-76
2022/04/17 02:53:34;;;;;;;11.88;8.95;;;;;;;;;;5097340;28;20648;-76
2022/04/17 02:56:01;;;;;;;10.80;9.80;;;;;;;;;;5097704;28;20201;-76
2022/04/17 02:58:28;;;;;;;10.57;9.32;;;;;;;;;;5097754;28;20195;-76
2022/04/17 03:06:26;;;;;;;11.70;9.30;;;;;;;;;;5097271;28;20268;-75
2022/04/17 03:08:54;;;;;;;22.40;11.70;;;;;;;;;;5096982;28;20202;-76
2022/04/17 03:11:21;;;;;;;12.63;9.15;;;;;;;;;;5097294;28;20217;-77
2022/04/17 03:13:48;;;;;;;14.77;9.68;;;;;;;;;;5096888;28;20194;-77
2022/04/17 03:16:16;;;;;;;11.40;10.10;;;;;;;;;;5096954;28;20198;-77
2022/04/17 03:18:44;;;;;;;14.63;10.35;;;;;;;;;;5097173;28;20273;-77
2022/04/17 03:21:11;;;;;;;14.68;11.00;;;;;;;;;;5097143;28;20210;-77
2022/04/17 03:23:39;;;;;;;15.23;10.05;;;;;;;;;;5096769;28;20665;-77
2022/04/17 03:26:06;;;;;;;13.23;10.70;;;;;;;;;;5097230;28;20192;-76
2022/04/17 03:28:34;;;;;;;10.55;9.38;;;;;;;;;;5096470;28;20191;-76
2022/04/17 03:31:01;;;;;;;12.50;9.63;;;;;;;;;;5097501;28;20214;-76
2022/04/17 03:33:28;;;;;;;12.57;10.15;;;;;;;;;;5096958;28;20197;-76
2022/04/17 03:35:58;;;;;;;14.77;10.88;;;;;;;;;;5097121;28;20286;-76
2022/04/17 03:38:25;;;;;;;12.63;10.07;;;;;;;;;;5097301;28;20199;-77
2022/04/17 03:40:52;;;;;;;11.00;9.20;;;;;;;;;;5096721;28;20207;-77
2022/04/17 03:43:22;;;;;;;13.10;9.48;;;;;;;;;;5096775;28;20305;-77
2022/04/17 03:45:49;;;;;;;11.65;9.45;;;;;;;;;;5096394;28;20198;-77
2022/04/17 03:48:18;;;;;;;15.60;9.38;;;;;;;;;;5096610;28;20189;-77
2022/04/17 03:50:45;;;;;;;10.63;9.60;;;;;;;;;;5096208;28;20230;-77
2022/04/17 03:53:13;;;;;;;15.38;9.05;;;;;;;;;;5096697;28;20194;-77
2022/04/17 03:55:41;;;;;;;12.90;9.60;;;;;;;;;;5096554;28;20202;-77
2022/04/17 03:58:08;;;;;;;10.43;7.85;;;;;;;;;;5096466;28;20199;-77
2022/04/17 04:00:35;;;;;;;10.63;9.50;;;;;;;;;;5096451;28;20281;-77
2022/04/17 04:03:02;;;;;;;12.25;10.27;;;;;;;;;;5096029;28;20209;-78
2022/04/17 04:05:31;;;;;;;17.10;9.88;;;;;;;;;;5096004;28;20206;-78
2022/04/17 04:07:58;;;;;;;10.48;9.38;;;;;;;;;;5096163;28;20193;-78
2022/04/17 04:10:27;;;;;;;19.52;9.73;;;;;;;;;;5095833;28;20215;-79
2022/04/17 04:12:54;;;;;;;10.80;9.38;;;;;;;;;;5096121;28;20195;-74
2022/04/17 04:15:21;;;;;;;13.80;10.55;;;;;;;;;;5096156;28;20195;-74
2022/04/17 04:17:49;;;;;;;11.45;9.57;;;;;;;;;;5095657;28;20193;-74
2022/04/17 04:20:16;;;;;;;12.18;9.77;;;;;;;;;;5095817;28;20291;-74
2022/04/17 04:22:44;;;;;;;12.52;10.60;;;;;;;;;;5095559;28;20201;-74
2022/04/17 04:25:11;;;;;;;16.15;9.95;;;;;;;;;;5095120;28;20285;-74
2022/04/17 04:30:24;;;;;;;11.90;8.98;;;;;;;;;;5095788;28;20279;-74
2022/04/17 04:32:53;;;;;;;11.52;10.13;;;;;;;;;;5095962;28;20191;-75
2022/04/17 04:35:21;;;;;;;19.83;10.65;;;;;;;;;;5095468;28;20201;-75
2022/04/17 04:37:48;;;;;;;12.45;9.57;;;;;;;;;;5095665;28;20210;-75
2022/04/17 04:40:18;;;;;;;13.27;10.07;;;;;;;;;;5095375;28;20288;-75
2022/04/17 04:42:46;;;;;;;12.13;10.40;;;;;;;;;;5095741;28;20277;-75
2022/04/17 04:47:58;;;;;;;13.77;10.98;;;;;;;;;;5095811;28;20312;-75
2022/04/17 04:50:25;;;;;;;10.82;9.65;;;;;;;;;;5095421;28;20229;-75
2022/04/17 04:52:53;;;;;;;17.75;10.88;;;;;;;;;;5095250;28;20202;-75
2022/04/17 04:55:20;;;;;;;14.82;10.68;;;;;;;;;;5095315;28;20256;-74
2022/04/17 04:57:48;;;;;;;13.05;8.68;;;;;;;;;;5095414;28;20633;-75
2022/04/17 05:00:16;;;;;;;11.82;9.73;;;;;;;;;;5094863;28;20202;-75
2022/04/17 05:02:43;;;;;;;10.40;9.40;;;;;;;;;;5094895;28;20286;-74
2022/04/17 05:05:11;;;;;;;14.45;11.02;;;;;;;;;;5095182;28;20206;-74
2022/04/17 05:07:38;;;;;;;10.73;9.55;;;;;;;;;;5094796;28;20663;-74
2022/04/17 05:10:06;;;;;;;11.52;9.32;;;;;;;;;;5094934;28;20198;-74
2022/04/17 05:12:33;;;;;;;14.55;10.75;;;;;;;;;;5094573;28;20190;-74
2022/04/17 05:15:02;;;;;;;11.70;9.73;;;;;;;;;;5094936;28;20195;-74
2022/04/17 05:17:29;;;;;;;12.43;9.63;;;;;;;;;;5094944;28;20191;-74
2022/04/17 05:19:56;;;;;;;12.95;9.68;;;;;;;;;;5094883;28;20198;-74
2022/04/17 05:22:31;;;;;;;15.95;10.20;;;;;;;;;;5094800;28;20204;-74
2022/04/17 05:24:58;;;;;;;12.40;10.27;;;;;;;;;;5094357;28;20268;-74
2022/04/17 05:27:27;;;;;;;12.75;10.35;;;;;;;;;;5094261;28;20200;-74
2022/04/17 05:29:54;;;;;;;12.38;10.38;;;;;;;;;;5094586;28;20194;-74
2022/04/17 05:32:23;;;;;;;18.05;10.88;;;;;;;;;;5094255;28;20218;-74
2022/04/17 05:34:50;;;;;;;10.65;9.55;;;;;;;;;;5094464;28;20223;-75
2022/04/17 05:37:17;;;;;;;11.55;10.35;;;;;;;;;;5094844;28;20196;-75
2022/04/17 05:39:44;;;;;;;12.75;9.88;;;;;;;;;;5094588;28;20196;-75
2022/04/17 05:42:12;;;;;;;13.85;9.95;;;;;;;;;;5094595;28;20195;-70
2022/04/17 05:44:39;;;;;;;12.52;9.65;;;;;;;;;;5094433;28;20627;-71
2022/04/17 05:47:06;;;;;;;13.25;10.52;;;;;;;;;;5094205;28;20223;-70
2022/04/17 05:49:35;;;;;;;11.63;10.43;;;;;;;;;;5093885;28;20656;-70
2022/04/17 05:52:03;;;;;;;10.93;9.65;;;;;;;;;;5094753;28;20215;-85
2022/04/17 05:54:30;;;;;;;13.35;10.35;;;;;;;;;;5094339;28;20195;-74
2022/04/17 05:56:57;;;;;;;11.63;9.85;;;;;;;;;;5094084;28;20195;-73
2022/04/17 05:59:24;;;;;;;12.57;9.57;;;;;;;;;;5093743;28;20200;-74
2022/04/17 06:01:52;;;;;;;11.82;10.05;;;;;;;;;;5094172;28;20563;-74
2022/04/17 06:04:19;;;;;;;12.23;9.50;;;;;;;;;;5094313;28;20290;-74
2022/04/17 06:06:49;;;;;;;12.73;10.20;;;;;;;;;;5094229;28;20204;-74
2022/04/17 06:09:17;;;;;;;11.65;9.20;;;;;;;;;;5093713;28;20179;-75
2022/04/17 06:11:44;;;;;;;13.73;9.77;;;;;;;;;;5093924;28;20318;-74
2022/04/17 06:14:11;;;;;;;10.73;9.63;;;;;;;;;;5093851;28;20200;-74
2022/04/17 06:16:39;;;;;;;11.85;9.93;;;;;;;;;;5093662;28;20225;-75
2022/04/17 06:19:09;;;;;;;11.85;9.43;;;;;;;;;;5093955;28;20201;-74
2022/04/17 06:21:38;;;;;;;11.23;9.35;;;;;;;;;;5093860;28;20606;-74
2022/04/17 06:24:07;;;;;;;11.70;9.63;;;;;;;;;;5093898;28;20199;-74
2022/04/17 06:26:35;;;;;;;16.60;10.27;;;;;;;;;;5093627;28;20192;-74
2022/04/17 06:29:05;;;;;;;15.32;9.98;;;;;;;;;;5094063;28;20553;-73
2022/04/17 06:31:32;;;;;;;10.60;9.25;;;;;;;;;;5093687;28;20212;-73
2022/04/17 06:33:59;;;;;;;13.30;9.63;;;;;;;;;;5093701;28;20195;-73
2022/04/17 06:36:27;;;;;;;12.80;9.70;;;;;;;;;;5093570;28;20199;-73
2022/04/17 06:38:54;;;;;;;10.93;9.75;;;;;;;;;;5093668;28;20219;-73
2022/04/17 06:41:22;;;;;;;10.60;9.55;;;;;;;;;;5093099;28;20206;-73
2022/04/17 06:43:50;;;;;;;14.20;10.27;;;;;;;;;;5093630;28;20203;-73
2022/04/17 06:46:17;;;;;;;13.57;10.50;;;;;;;;;;5093654;28;20255;-73
2022/04/17 06:48:44;;;;;;;14.57;10.75;;;;;;;;;;5094261;28;20205;-73
2022/04/17 06:51:12;;;;;;;13.43;10.70;;;;;;;;;;5093144;28;20687;-73
2022/04/17 06:53:39;;;;;;;14.05;10.10;;;;;;;;;;5093529;28;20569;-73
2022/04/17 06:56:06;;;;;;;11.27;9.95;;;;;;;;;;5093253;28;20649;-73
2022/04/17 06:58:35;;;;;;;11.30;9.68;;;;;;;;;;5094000;28;20199;-73
2022/04/17 07:01:02;;;;;;;13.95;9.82;;;;;;;;;;5093104;28;20295;-73
2022/04/17 07:03:29;;;;;;;13.02;10.05;;;;;;;;;;5093114;28;20200;-73
2022/04/17 07:05:57;;;;;;;11.93;9.55;;;;;;;;;;5093382;28;20196;-73
2022/04/17 07:08:25;;;;;;;13.23;10.70;;;;;;;;;;5093621;28;20207;-73
2022/04/17 07:10:52;;;;;;;11.88;9.48;;;;;;;;;;5093569;28;20196;-73
2022/04/17 07:13:19;;;;;;;12.93;11.63;;;;;;;;;;5093083;28;20201;-73
2022/04/17 07:15:48;;;;;;;12.50;9.77;;;;;;;;;;5093385;28;20561;-73
2022/04/17 07:18:15;;;;;;;11.40;9.88;;;;;;;;;;5093363;28;20195;-73
2022/04/17 07:20:42;;;;;;;13.70;9.50;;;;;;;;;;5093450;28;20200;-73
2022/04/17 07:23:10;;;;;;;11.23;9.43;;;;;;;;;;5093342;28;20557;-73
2022/04/17 07:25:37;;;;;;;11.80;9.63;;;;;;;;;;5093037;28;20196;-73
2022/04/17 07:28:05;;;;;;;11.35;10.15;;;;;;;;;;5093608;28;20193;-73
2022/04/17 07:30:35;;;;;;;15.20;10.52;;;;;;;;;;5092756;28;20205;-73
2022/04/17 07:33:04;;;;;;;12.75;9.45;;;;;;;;;;5093140;28;20213;-73
2022/04/17 07:35:31;;;;;;;13.98;11.88;;;;;;;;;;5094489;28;20243;-73
2022/04/17 07:38:00;;;;;;;15.80;10.35;;;;;;;;;;5096627;28;20649;-73
2022/04/17 07:40:28;;;;;;;10.50;9.40;;;;;;;;;;5096977;28;20239;-73
2022/04/17 07:42:56;;;;;;;10.00;9.02;;;;;;;;;;5096800;28;20547;-73
2022/04/17 07:45:23;;;;;;;11.27;8.73;;;;;;;;;;5096649;28;20193;-74
2022/04/17 07:47:51;;;;;;;11.48;9.80;;;;;;;;;;5096821;28;20324;-73
2022/04/17 07:50:21;;;;;;;12.13;8.98;;;;;;;;;;5096415;28;20195;-73
2022/04/17 07:52:48;;;;;;;11.10;8.65;;;;;;;;;;5096277;28;20678;-73
2022/04/17 07:55:16;;;;;;;12.38;8.95;;;;;;;;;;5096514;28;20193;-73
2022/04/17 07:57:56;;;;;;;8.38;7.57;;;;;;;;;;5096257;28;20193;-74
2022/04/17 08:00:23;;;;;;;9.43;7.55;;;;;;;;;;5096622;28;20187;-73
2022/04/17 08:02:53;;;;;;;10.07;7.60;;;;;;;;;;5096282;28;20228;-73
2022/04/17 08:05:22;;;;;;;9.55;7.15;;;;;;;;;;5096638;28;20291;-73
2022/04/17 08:07:50;;;;;;;11.57;7.75;;;;;;;;;;5095869;28;20201;-72
2022/04/17 08:10:17;;;;;;;10.73;6.85;;;;;;;;;;5096195;28;20197;-73
2022/04/17 08:12:45;;;;;;;8.73;7.83;;;;;;;;;;5096079;28;20220;-74
2022/04/17 08:15:12;;;;;;;8.25;7.30;;;;;;;;;;5096121;28;20442;-74
2022/04/17 08:17:39;;;;;;;10.07;7.15;;;;;;;;;;5096052;28;20197;-74
2022/04/17 08:20:07;;;;;;;9.20;6.50;;;;;;;;;;5095744;28;20193;-74
2022/04/17 08:22:36;;;;;;;7.05;6.05;;;;;;;;;;5096109;28;20534;-74
2022/04/17 08:25:03;;;;;;;5.83;5.10;;;;;;;;;;5095850;28;20197;-73
2022/04/17 08:27:30;;;;;;;6.25;5.65;;;;;;;;;;5095929;28;20462;-73
2022/04/17 08:29:57;;;;;;;16.10;8.65;;;;;;;;;;5096064;28;20289;-73
2022/04/17 08:32:24;;;;;;;11.05;5.95;;;;;;;;;;5095304;28;20213;-74
2022/04/17 08:34:52;;;;;;;6.65;5.47;;;;;;;;;;5095376;28;20197;-74
2022/04/17 08:37:19;;;;;;;5.60;5.10;;;;;;;;;;5095997;28;20570;-74
2022/04/17 08:39:47;;;;;;;8.85;5.57;;;;;;;;;;5095438;28;20960;-74
2022/04/17 08:42:15;;;;;;;7.53;5.90;;;;;;;;;;5095426;28;20203;-74
2022/04/17 08:44:42;;;;;;;6.05;5.40;;;;;;;;;;5095114;28;20525;-74
2022/04/17 08:47:09;;;;;;;8.77;5.97;;;;;;;;;;5094183;28;20230;-74
2022/04/17 08:49:36;;;;;;;5.53;4.93;;;;;;;;;;5095297;28;20625;-74
2022/04/17 08:52:04;;;;;;;6.53;5.90;;;;;;;;;;5095102;28;20483;-74
2022/04/17 08:54:32;;;;;;;6.37;5.50;;;;;;;;;;5094941;28;20500;-74
2022/04/17 08:57:01;;;;;;;6.10;5.50;;;;;;;;;;5095725;28;20439;-74
2022/04/17 08:59:28;;;;;;;6.90;6.03;;;;;;;;;;5094792;28;20455;-73
2022/04/17 09:01:55;;;;;;;9.40;6.10;;;;;;;;;;5095064;28;20955;-73
2022/04/17 09:04:23;;;;;;;7.90;5.93;;;;;;;;;;5095176;28;20440;-74
2022/04/17 09:06:50;;;;;;;7.43;6.50;;;;;;;;;;5095049;28;20444;-74
2022/04/17 09:09:21;;;;;;;6.97;6.07;;;;;;;;;;5094383;28;20523;-74
2022/04/17 09:11:55;;;;;;;6.63;6.03;;;;;;;;;;5094658;28;20478;-74
2022/04/17 09:14:24;;;;;;;6.90;6.30;;;;;;;;;;5095195;28;20427;-73
2022/04/17 09:16:52;;;;;;;6.60;6.00;;;;;;;;;;5095065;28;20518;-74
2022/04/17 09:19:19;;;;;;;6.43;5.83;;;;;;;;;;5095002;28;20447;-74
2022/04/17 09:21:47;;;;;;;7.10;6.00;;;;;;;;;;5094285;28;20448;-74
2022/04/17 09:24:18;;;;;;;8.00;5.80;;;;;;;;;;5094811;28;20440;-74
2022/04/17 09:26:50;;;;;;;12.00;9.10;;;;;;;;;;5094178;28;20454;-74
2022/04/17 09:29:21;;;;;;;11.33;8.67;;;;;;;;;;5094256;28;20440;-74
2022/04/17 09:31:56;;;;;;;7.30;5.47;;;;;;;;;;5094372;28;20987;-74
2022/04/17 09:34:23;;;;;;;7.40;6.70;;;;;;;;;;5094483;28;20436;-74
2022/04/17 09:36:53;;;;;;;6.07;5.10;;;;;;;;;;5094628;28;20625;-74
2022/04/17 09:39:20;;;;;;;7.00;6.40;;;;;;;;;;5094265;28;20929;-74
2022/04/17 09:41:55;;;;;;;7.30;5.30;;;;;;;;;;5094064;28;20527;-74
2022/04/17 09:44:38;;;;;;;6.83;5.30;;;;;;;;;;5093938;28;20931;-74
2022/04/17 09:47:09;;;;;;;7.77;6.93;;;;;;;;;;5094107;28;20476;-74
2022/04/17 09:49:52;;;;;;;6.83;6.03;;;;;;;;;;5094268;28;20485;-74
2022/04/17 09:52:20;;;;;;;6.50;5.90;;;;;;;;;;5094483;28;20482;-74
2022/04/17 09:54:48;;;;;;;7.00;5.93;;;;;;;;;;5093863;28;20444;-73
2022/04/17 09:57:19;;;;;;;7.13;6.43;;;;;;;;;;5093850;28;20444;-75
2022/04/17 09:59:46;;;;;;;11.97;6.83;;;;;;;;;;5093677;28;20930;-74
2022/04/17 10:02:16;;;;;;;9.63;5.50;;;;;;;;;;5094048;28;20456;-73
2022/04/17 10:04:45;;;;;;;6.47;5.30;;;;;;;;;;5093641;28;20933;-73
2022/04/17 10:07:14;;;;;;;6.93;6.23;;;;;;;;;;5093985;28;20851;-73
2022/04/17 10:09:43;;;;;;;6.53;5.90;;;;;;;;;;5093720;28;20448;-73
2022/04/17 10:12:14;;;;;;;13.63;6.00;;;;;;;;;;5094127;28;20828;-73
2022/04/17 10:14:42;;;;;;;8.20;5.57;;;;;;;;;;5093528;28;20464;-73
2022/04/17 10:17:10;;;;;;;7.10;6.40;;;;;;;;;;5093806;28;20870;-73
2022/04/17 10:19:39;;;;;;;7.57;6.77;;;;;;;;;;5093437;28;20452;-73
2022/04/17 10:22:07;;;;;;;7.77;6.10;;;;;;;;;;5093809;28;20542;-73
2022/04/17 10:24:37;;;;;;;6.77;5.80;;;;;;;;;;5093751;28;20459;-73
2022/04/17 10:27:06;;;;;;;6.10;5.50;;;;;;;;;;5093511;28;20932;-73
2022/04/17 10:29:36;;;;;;;6.70;6.00;;;;;;;;;;5093616;28;20444;-73
2022/04/17 10:32:16;;;;;;;7.67;5.50;;;;;;;;;;5093494;28;20440;-73
2022/04/17 10:35:00;;;;;;;7.63;5.70;;;;;;;;;;5093516;28;20482;-73
2022/04/17 10:37:54;;;;;;;7.53;5.43;;;;;;;;;;5093747;28;20421;-73
2022/04/17 10:40:22;;;;;;;9.63;5.90;;;;;;;;;;5068856;28;20458;-73
2022/04/17 10:42:57;;;;;;;8.87;6.40;;;;;;;;;;5094009;28;20443;-73
2022/04/17 10:45:25;;;;;;;8.90;6.60;;;;;;;;;;5093423;28;20435;-73
2022/04/17 10:48:03;;;;;;;5.90;5.30;;;;;;;;;;5093999;28;20499;-73
2022/04/17 10:50:32;;;;;;;6.03;5.17;;;;;;;;;;5093464;28;20797;-73
2022/04/17 10:53:14;;;;;;;6.83;6.20;;;;;;;;;;5093254;28;20475;-73
2022/04/17 10:56:01;;;;;;;6.57;5.40;;;;;;;;;;5093608;28;20509;-73
2022/04/17 10:58:35;;;;;;;6.30;5.00;;;;;;;;;;5093446;28;20466;-73
2022/04/17 11:01:02;;;;;;;6.57;4.60;;;;;;;;;;5092929;28;20431;-73
2022/04/17 11:03:29;;;;;;;6.70;5.50;;;;;;;;;;5093893;28;20440;-73
2022/04/17 11:06:09;;;;;;;5.30;4.80;;;;;;;;;;5093214;28;20478;-73
2022/04/17 11:08:48;;;;;;;7.73;5.30;;;;;;;;;;5093151;28;20432;-74
2022/04/17 11:11:16;;;;;;;7.73;5.40;;;;;;;;;;5095944;28;20424;-74
2022/04/17 11:13:49;;;;;;;8.53;6.33;;;;;;;;;;5096030;28;21041;-74
2022/04/17 11:16:16;;;;;;;7.23;5.40;;;;;;;;;;5097257;28;20436;-74
2022/04/17 11:18:43;;;;;;;6.13;5.50;;;;;;;;;;5096856;28;20439;-74
2022/04/17 11:21:12;;;;;;;5.87;5.20;;;;;;;;;;5096905;28;20451;-74
2022/04/17 11:23:57;;;;;;;6.20;5.53;;;;;;;;;;5096792;28;20493;-74
2022/04/17 11:26:57;;;;;;;8.57;5.40;;;;;;;;;;5096485;28;20513;-74
2022/04/17 11:29:40;;;;;;;6.07;5.47;;;;;;;;;;5096401;28;20485;-74
2022/04/17 11:32:26;;;;;;;6.10;5.50;;;;;;;;;;5094971;28;20822;-74
2022/04/17 11:34:54;;;;;;;7.90;5.33;;;;;;;;;;5096544;28;20454;-74
2022/04/17 11:37:23;;;;;;;6.93;5.80;;;;;;;;;;5096797;28;20876;-74
2022/04/17 11:39:50;;;;;;;7.07;6.37;;;;;;;;;;5096701;28;20462;-73
2022/04/17 11:42:18;;;;;;;6.57;5.70;;;;;;;;;;5096371;28;20527;-74
2022/04/17 11:44:45;;;;;;;6.33;5.40;;;;;;;;;;5096685;28;20436;-74
2022/04/17 11:47:15;;;;;;;6.17;5.30;;;;;;;;;;5096237;28;20557;-75
2022/04/17 11:49:42;;;;;;;5.83;4.50;;;;;;;;;;5096070;28;20440;-74
2022/04/17 11:52:13;;;;;;;6.00;5.00;;;;;;;;;;5096218;28;20435;-74
2022/04/17 11:54:42;;;;;;;6.80;5.20;;;;;;;;;;5096593;28;20444;-74
2022/04/17 11:57:10;;;;;;;9.10;5.40;;;;;;;;;;5095983;28;20493;-74
2022/04/17 11:59:47;;;;;;;5.90;4.97;;;;;;;;;;5095781;28;20433;-74
2022/04/17 12:02:16;;;;;;;5.80;4.90;;;;;;;;;;5096203;28;20437;-74
2022/04/17 12:04:43;;;;;;;8.00;4.93;;;;;;;;;;5096017;28;20500;-73
2022/04/17 12:07:10;;;;;;;5.73;4.53;;;;;;;;;;5095674;28;20937;-73
2022/04/17 12:09:38;;;;;;;5.00;4.57;;;;;;;;;;5095688;28;20923;-73
2022/04/17 12:12:10;;;;;;;5.77;5.27;;;;;;;;;;5095965;28;20551;-73
2022/04/17 12:14:37;;;;;;;8.30;4.10;;;;;;;;;;5095678;28;20547;-73
2022/04/17 12:17:05;;;;;;;4.73;4.03;;;;;;;;;;5095866;28;20442;-73
2022/04/17 12:19:32;;;;;;;4.07;3.67;;;;;;;;;;5096156;28;20480;-73
2022/04/17 12:21:59;;;;;;;4.70;3.67;;;;;;;;;;5095441;28;20447;-73
2022/04/17 12:24:27;;;;;;;5.17;3.60;;;;;;;;;;5095712;28;20453;-73
2022/04/17 12:26:55;;;;;;;4.00;3.60;;;;;;;;;;5095561;28;20471;-73
2022/04/17 12:29:24;;;;;;;4.67;3.83;;;;;;;;;;5095529;28;20913;-74
2022/04/17 12:31:51;;;;;;;4.60;3.90;;;;;;;;;;5095870;28;20446;-74
2022/04/17 12:34:19;;;;;;;3.47;3.17;;;;;;;;;;5095423;28;20472;-75
2022/04/17 12:36:48;;;;;;;5.97;3.13;;;;;;;;;;5095465;28;20446;-75
2022/04/17 12:39:15;;;;;;;3.37;3.07;;;;;;;;;;5095126;28;20432;-73
2022/04/17 12:41:43;;;;;;;4.57;3.67;;;;;;;;;;5095408;28;20547;-72
2022/04/17 12:44:10;;;;;;;3.90;3.47;;;;;;;;;;5094963;28;20443;-74
2022/04/17 12:46:43;;;;;;;4.67;3.50;;;;;;;;;;5094770;28;20561;-73
2022/04/17 12:49:11;;;;;;;3.20;2.87;;;;;;;;;;5095097;28;20885;-73
2022/04/17 12:51:39;;;;;;;4.10;3.80;;;;;;;;;;5094976;28;20438;-73
2022/04/17 12:54:08;;;;;;;4.53;4.10;;;;;;;;;;5094548;28;20473;-73
2022/04/17 12:56:37;;;;;;;4.93;3.30;;;;;;;;;;5094280;28;20495;-73
2022/04/17 12:59:04;;;;;;;4.47;3.80;;;;;;;;;;5094960;28;20524;-73
2022/04/17 13:01:32;;;;;;;6.03;3.60;;;;;;;;;;5094631;28;20469;-74
2022/04/17 13:04:20;;;;;;;3.70;3.40;;;;;;;;;;5095239;28;20439;-74
2022/04/17 13:06:50;;;;;;;3.60;3.00;;;;;;;;;;5094963;28;20507;-73
2022/04/17 13:09:19;;;;;;;3.27;2.97;;;;;;;;;;5094787;28;20446;-73
2022/04/17 13:11:48;;;;;;;3.60;3.30;;;;;;;;;;5094381;28;20444;-73
2022/04/17 13:14:15;;;;;;;4.20;3.43;;;;;;;;;;5094556;28;20504;-73
2022/04/17 13:16:50;;;;;;;3.97;3.67;;;;;;;;;;5094705;28;20786;-74
2022/04/17 13:19:17;;;;;;;8.23;3.70;;;;;;;;;;5094505;28;20498;-74
2022/04/17 13:21:44;;;;;;;3.00;2.70;;;;;;;;;;5094307;28;20956;-73
2022/04/17 13:24:15;;;;;;;3.00;2.80;;;;;;;;;;5094492;28;20446;-74
2022/04/17 13:26:43;;;;;;;3.93;2.77;;;;;;;;;;5094065;28;20428;-73
2022/04/17 13:29:10;;;;;;;4.13;3.03;;;;;;;;;;5093959;28;21009;-73
2022/04/17 13:31:37;;;;;;;4.50;3.30;;;;;;;;;;5094583;28;20444;-74
2022/04/17 13:34:05;;;;;;;4.10;3.00;;;;;;;;;;5093400;28;20483;-73
2022/04/17 13:36:32;;;;;;;4.10;3.03;;;;;;;;;;5094228;28;20444;-73
2022/04/17 13:38:59;;;;;;;9.63;4.50;;;;;;;;;;5094250;28;20437;-73
2022/04/17 13:41:29;;;;;;;3.60;3.20;;;;;;;;;;5094168;28;20436;-74
2022/04/17 13:43:57;;;;;;;2.87;2.67;;;;;;;;;;5094217;28;20436;-73
2022/04/17 13:46:28;;;;;;;3.70;3.40;;;;;;;;;;5094148;28;20513;-74
2022/04/17 13:48:56;;;;;;;4.93;3.00;;;;;;;;;;5094436;28;20839;-74
2022/04/17 13:51:23;;;;;;;3.70;2.90;;;;;;;;;;5093836;28;20554;-73
2022/04/17 13:53:50;;;;;;;3.27;2.97;;;;;;;;;;5094722;28;20480;-73
2022/04/17 13:56:18;;;;;;;3.13;2.80;;;;;;;;;;5093808;28;20442;-73
2022/04/17 13:58:46;;;;;;;3.90;3.53;;;;;;;;;;5093413;28;20937;-73
2022/04/17 14:01:13;;;;;;;4.80;3.83;;;;;;;;;;5093947;28;20501;-74
2022/04/17 14:03:42;;;;;;;5.03;4.53;;;;;;;;;;5093579;28;20523;-74
2022/04/17 14:06:11;;;;;;;2.43;2.23;;;;;;;;;;5093419;28;20459;-74
2022/04/17 14:08:39;;;;;;;3.53;2.60;;;;;;;;;;5094095;28;20528;-73
2022/04/17 14:11:06;;;;;;;5.63;2.43;;;;;;;;;;5094243;28;20494;-71
2022/04/17 14:13:34;;;;;;;2.37;2.17;;;;;;;;;;5093600;28;20570;-74
2022/04/17 14:16:03;;;;;;;4.23;2.70;;;;;;;;;;5094202;28;20541;-74
2022/04/17 14:18:30;;;;;;;8.83;2.80;;;;;;;;;;5093384;28;20447;-73
2022/04/17 14:20:57;;;;;;;2.77;2.57;;;;;;;;;;5093564;28;20440;-74
2022/04/17 14:23:24;;;;;;;3.40;2.60;;;;;;;;;;5093185;28;20478;-74
2022/04/17 14:25:52;;;;;;;5.00;2.67;;;;;;;;;;5093110;28;20546;-74
2022/04/17 14:28:20;;;;;;;2.67;2.47;;;;;;;;;;5093571;28;20614;-73
2022/04/17 14:30:47;;;;;;;2.97;2.67;;;;;;;;;;5092968;28;20533;-73
2022/04/17 14:33:16;;;;;;;2.93;2.63;;;;;;;;;;5093227;28;20439;-73
2022/04/17 14:35:50;;;;;;;3.60;2.70;;;;;;;;;;5093321;28;20526;-73
2022/04/17 14:38:17;;;;;;;3.40;3.10;;;;;;;;;;5093073;28;20769;-73
2022/04/17 14:40:45;;;;;;;3.30;3.00;;;;;;;;;;5093414;28;20441;-73
2022/04/17 14:43:12;;;;;;;3.43;3.10;;;;;;;;;;5093061;28;20446;-74
2022/04/17 14:45:42;;;;;;;3.67;3.37;;;;;;;;;;5095559;28;20442;-73
2022/04/17 14:48:09;;;;;;;5.10;3.50;;;;;;;;;;5097834;28;20437;-73
2022/04/17 14:50:38;;;;;;;2.93;2.70;;;;;;;;;;5097130;28;20452;-73
2022/04/17 14:53:05;;;;;;;2.90;2.60;;;;;;;;;;5097482;28;20463;-73
2022/04/17 14:55:32;;;;;;;2.37;2.17;;;;;;;;;;5097324;28;20477;-73
2022/04/17 14:58:00;;;;;;;2.60;2.40;;;;;;;;;;5097786;28;20438;-73